Time,TemperatureF,DewpointF,PressureIn,WindDirection,WindDirectionDegrees,WindSpeedMPH,WindSpeedGustMPH,Humidity,HourlyPrecipIn,Conditions,Clouds,dailyrainin,SoftwareType,DateUTC
2013-04-15 00:00:00,64.9,64.6,29.21,East,90,2.0,2.0,99,0.00,,,0.00,meteohub,2013-04-15 10:00:00,
2013-04-15 00:05:00,64.6,64.2,29.21,East,90,2.0,2.0,99,0.00,,,0.00,meteohub,2013-04-15 10:05:00,
2013-04-15 00:10:00,64.6,63.7,29.21,SE,135,2.0,3.0,97,0.00,,,0.00,meteohub,2013-04-15 10:10:00,
2013-04-15 00:15:00,64.8,63.3,29.21,East,90,3.0,4.0,95,0.00,,,0.00,meteohub,2013-04-15 10:15:00,
2013-04-15 00:20:00,64.9,62.6,29.21,SE,135,2.0,4.0,92,0.00,,,0.00,meteohub,2013-04-15 10:20:00,
2013-04-15 00:25:00,64.8,62.1,29.21,SE,135,2.0,4.0,91,0.00,,,0.00,meteohub,2013-04-15 10:25:00,
2013-04-15 00:30:00,64.8,61.7,29.21,NE,45,2.0,3.0,90,0.00,,,0.00,meteohub,2013-04-15 10:30:00,
2013-04-15 00:36:00,64.6,61.3,29.21,East,90,2.0,3.0,89,0.00,,,0.00,meteohub,2013-04-15 10:36:00,
2013-04-15 00:41:00,64.4,61.3,29.21,NE,45,2.0,3.0,90,0.00,,,0.00,meteohub,2013-04-15 10:41:00,
2013-04-15 00:46:00,64.2,61.2,29.21,NE,45,2.0,3.0,90,0.00,,,0.00,meteohub,2013-04-15 10:46:00,
2013-04-15 00:51:00,64.2,61.5,29.21,NE,45,2.0,3.0,91,0.00,,,0.00,meteohub,2013-04-15 10:51:00,
2013-04-15 00:56:00,64.0,61.3,29.21,NE,45,2.0,3.0,91,0.00,,,0.00,meteohub,2013-04-15 10:56:00,
2013-04-15 01:01:00,64.0,61.7,29.21,NE,45,2.0,3.0,92,0.00,,,0.00,meteohub,2013-04-15 11:01:00,
2013-04-15 01:07:00,64.0,61.7,29.21,East,90,4.0,4.0,92,0.00,,,0.00,meteohub,2013-04-15 11:07:00,
2013-04-15 01:12:00,64.2,61.5,29.20,NE,45,2.0,4.0,91,0.00,,,0.00,meteohub,2013-04-15 11:12:00,
2013-04-15 01:17:00,64.4,61.7,29.20,NE,45,2.0,4.0,91,0.00,,,0.00,meteohub,2013-04-15 11:17:00,
2013-04-15 01:22:00,64.6,61.9,29.21,NE,45,2.0,4.0,91,0.00,,,0.00,meteohub,2013-04-15 11:22:00,
2013-04-15 01:27:00,64.8,62.1,29.21,NE,45,2.0,3.0,91,0.00,,,0.00,meteohub,2013-04-15 11:27:00,
2013-04-15 01:32:00,64.8,62.1,29.21,NE,45,2.0,2.0,91,0.00,,,0.00,meteohub,2013-04-15 11:32:00,
2013-04-15 01:37:00,64.8,62.1,29.21,NE,45,2.0,3.0,91,0.00,,,0.00,meteohub,2013-04-15 11:37:00,
2013-04-15 01:42:00,64.8,62.1,29.21,East,90,2.0,3.0,91,0.00,,,0.00,meteohub,2013-04-15 11:42:00,
2013-04-15 01:47:00,64.9,62.2,29.21,East,90,2.0,3.0,91,0.00,,,0.00,meteohub,2013-04-15 11:47:00,
2013-04-15 01:52:00,64.8,62.1,29.21,NE,45,2.0,2.0,91,0.00,,,0.00,meteohub,2013-04-15 11:52:00,
2013-04-15 01:57:00,64.6,61.9,29.20,NE,45,2.0,2.0,91,0.00,,,0.00,meteohub,2013-04-15 11:57:00,
2013-04-15 02:02:00,64.6,62.2,29.20,NE,45,2.0,2.0,92,0.00,,,0.00,meteohub,2013-04-15 12:02:00,
2013-04-15 02:07:00,64.6,62.2,29.20,NE,45,2.0,2.0,92,0.00,,,0.00,meteohub,2013-04-15 12:07:00,
2013-04-15 02:12:00,64.6,62.2,29.20,NE,45,2.0,2.0,92,0.00,,,0.00,meteohub,2013-04-15 12:12:00,
2013-04-15 02:17:00,64.8,62.4,29.20,NE,45,2.0,2.0,92,0.00,,,0.00,meteohub,2013-04-15 12:17:00,
2013-04-15 02:22:00,64.8,62.4,29.20,NE,45,2.0,2.0,92,0.00,,,0.00,meteohub,2013-04-15 12:22:00,
2013-04-15 02:27:00,64.6,62.2,29.20,NE,45,2.0,2.0,92,0.00,,,0.00,meteohub,2013-04-15 12:27:00,
2013-04-15 02:33:00,64.6,62.2,29.20,NE,45,2.0,2.0,92,0.00,,,0.00,meteohub,2013-04-15 12:33:00,
2013-04-15 02:38:00,64.6,62.4,29.19,NE,45,2.0,2.0,93,0.00,,,0.00,meteohub,2013-04-15 12:38:00,
2013-04-15 02:43:00,64.4,62.4,29.19,NE,45,2.0,2.0,93,0.00,,,0.00,meteohub,2013-04-15 12:43:00,
2013-04-15 02:48:00,64.4,62.4,29.19,NE,45,2.0,3.0,93,0.00,,,0.00,meteohub,2013-04-15 12:48:00,
2013-04-15 02:53:00,64.2,62.2,29.19,NE,45,2.0,3.0,93,0.00,,,0.00,meteohub,2013-04-15 12:53:00,
2013-04-15 02:58:00,64.2,62.2,29.19,NE,45,3.0,3.0,93,0.00,,,0.00,meteohub,2013-04-15 12:58:00,
2013-04-15 03:03:00,64.0,62.1,29.19,NE,45,2.0,3.0,93,0.00,,,0.00,meteohub,2013-04-15 13:03:00,
2013-04-15 03:08:00,64.0,62.1,29.19,NE,45,2.0,3.0,93,0.00,,,0.00,meteohub,2013-04-15 13:08:00,
2013-04-15 03:13:00,64.0,62.1,29.19,NE,45,2.0,4.0,93,0.00,,,0.00,meteohub,2013-04-15 13:13:00,
2013-04-15 03:18:00,64.0,62.1,29.19,NE,45,2.0,4.0,93,0.00,,,0.00,meteohub,2013-04-15 13:18:00,
2013-04-15 03:23:00,64.0,62.1,29.19,NE,45,2.0,4.0,93,0.00,,,0.00,meteohub,2013-04-15 13:23:00,
2013-04-15 03:28:00,63.9,61.9,29.19,NE,45,2.0,2.0,93,0.00,,,0.00,meteohub,2013-04-15 13:28:00,
2013-04-15 03:34:00,63.7,61.9,29.19,NE,45,2.0,3.0,94,0.00,,,0.00,meteohub,2013-04-15 13:34:00,
2013-04-15 03:39:00,63.7,61.9,29.19,NE,45,1.0,3.0,94,0.00,,,0.00,meteohub,2013-04-15 13:39:00,
2013-04-15 03:44:00,63.1,61.3,29.19,NE,45,1.0,3.0,94,0.00,,,0.00,meteohub,2013-04-15 13:44:00,
2013-04-15 03:49:00,62.8,61.0,29.19,NE,45,2.0,2.0,94,0.00,,,0.00,meteohub,2013-04-15 13:49:00,
2013-04-15 03:54:00,62.4,61.0,29.19,NE,45,2.0,2.0,95,0.00,,,0.00,meteohub,2013-04-15 13:54:00,
2013-04-15 03:59:00,62.6,60.6,29.19,NE,45,2.0,2.0,93,0.00,,,0.00,meteohub,2013-04-15 13:59:00,
2013-04-15 04:04:00,62.8,59.2,29.19,NE,45,4.0,4.0,88,0.00,,,0.00,meteohub,2013-04-15 14:04:00,
2013-04-15 04:09:00,63.1,58.3,29.19,East,90,2.0,4.0,84,0.00,,,0.00,meteohub,2013-04-15 14:09:00,
2013-04-15 04:14:00,63.1,58.3,29.19,NE,45,3.0,6.0,84,0.00,,,0.00,meteohub,2013-04-15 14:14:00,
2013-04-15 04:19:00,63.0,58.1,29.19,NE,45,2.0,6.0,84,0.00,,,0.00,meteohub,2013-04-15 14:19:00,
2013-04-15 04:24:00,62.8,58.3,29.20,NE,45,3.0,6.0,85,0.00,,,0.00,meteohub,2013-04-15 14:24:00,
2013-04-15 04:29:00,63.0,58.1,29.19,NE,45,3.0,3.0,84,0.00,,,0.00,meteohub,2013-04-15 14:29:00,
2013-04-15 04:34:00,63.0,58.1,29.19,East,90,3.0,4.0,84,0.00,,,0.00,meteohub,2013-04-15 14:34:00,
2013-04-15 04:39:00,63.0,57.7,29.19,NE,45,2.0,4.0,83,0.00,,,0.00,meteohub,2013-04-15 14:39:00,
2013-04-15 04:44:00,62.8,57.9,29.19,NE,45,2.0,4.0,84,0.00,,,0.00,meteohub,2013-04-15 14:44:00,
2013-04-15 04:50:00,62.6,57.7,29.19,NE,45,2.0,4.0,84,0.00,,,0.00,meteohub,2013-04-15 14:50:00,
2013-04-15 04:55:00,62.4,57.9,29.20,NE,45,2.0,4.0,85,0.00,,,0.00,meteohub,2013-04-15 14:55:00,
2013-04-15 05:00:00,62.4,58.1,29.20,NE,45,2.0,2.0,86,0.00,,,0.00,meteohub,2013-04-15 15:00:00,
2013-04-15 05:05:00,62.2,58.3,29.20,NE,45,2.0,3.0,87,0.00,,,0.00,meteohub,2013-04-15 15:05:00,
2013-04-15 05:10:00,62.1,58.1,29.20,NE,45,2.0,3.0,87,0.00,,,0.00,meteohub,2013-04-15 15:10:00,
2013-04-15 05:15:00,62.1,58.5,29.20,NE,45,2.0,3.0,88,0.00,,,0.00,meteohub,2013-04-15 15:15:00,
2013-04-15 05:20:00,62.1,58.8,29.21,NE,45,2.0,2.0,89,0.00,,,0.00,meteohub,2013-04-15 15:20:00,
2013-04-15 05:25:00,62.2,59.0,29.21,NE,45,2.0,2.0,89,0.00,,,0.00,meteohub,2013-04-15 15:25:00,
2013-04-15 05:30:00,62.2,59.0,29.21,NE,45,2.0,2.0,89,0.00,,,0.00,meteohub,2013-04-15 15:30:00,
2013-04-15 05:35:00,62.4,59.2,29.21,NE,45,2.0,2.0,89,0.00,,,0.00,meteohub,2013-04-15 15:35:00,
2013-04-15 05:40:00,62.4,58.8,29.21,NE,45,2.0,2.0,88,0.00,,,0.00,meteohub,2013-04-15 15:40:00,
2013-04-15 05:45:00,62.4,58.8,29.21,NE,45,2.0,2.0,88,0.00,,,0.00,meteohub,2013-04-15 15:45:00,
2013-04-15 05:50:00,62.6,59.4,29.21,NE,45,2.0,2.0,89,0.00,,,0.00,meteohub,2013-04-15 15:50:00,
2013-04-15 05:55:00,62.8,59.5,29.21,NE,45,2.0,2.0,89,0.00,,,0.00,meteohub,2013-04-15 15:55:00,
2013-04-15 06:00:00,63.0,59.4,29.21,NE,45,2.0,2.0,88,0.00,,,0.00,meteohub,2013-04-15 16:00:00,
2013-04-15 06:05:00,63.1,59.2,29.21,NE,45,2.0,3.0,87,0.00,,,0.00,meteohub,2013-04-15 16:05:00,
2013-04-15 06:10:00,63.1,59.2,29.22,NE,45,3.0,3.0,87,0.00,,,0.00,meteohub,2013-04-15 16:10:00,
2013-04-15 06:15:00,63.3,59.4,29.22,NE,45,2.0,3.0,87,0.00,,,0.00,meteohub,2013-04-15 16:15:00,
2013-04-15 06:20:00,63.5,59.5,29.22,East,90,3.0,3.0,87,0.00,,,0.00,meteohub,2013-04-15 16:20:00,
2013-04-15 06:25:00,63.7,60.1,29.23,NE,45,2.0,3.0,88,0.00,,,0.00,meteohub,2013-04-15 16:25:00,
2013-04-15 06:30:00,63.9,59.9,29.22,NE,45,2.0,3.0,87,0.00,,,0.00,meteohub,2013-04-15 16:30:00,
2013-04-15 06:35:00,64.0,59.7,29.23,NE,45,2.0,3.0,86,0.00,,,0.00,meteohub,2013-04-15 16:35:00,
2013-04-15 06:40:00,64.0,59.7,29.23,NE,45,1.0,3.0,86,0.00,,,0.00,meteohub,2013-04-15 16:40:00,
2013-04-15 06:45:00,64.0,59.4,29.23,NE,45,1.0,3.0,85,0.00,,,0.00,meteohub,2013-04-15 16:45:00,
2013-04-15 06:50:00,64.2,59.5,29.24,NE,45,2.0,3.0,85,0.00,,,0.00,meteohub,2013-04-15 16:50:00,
2013-04-15 06:56:00,64.8,60.1,29.24,East,90,2.0,2.0,85,0.00,,,0.00,meteohub,2013-04-15 16:56:00,
2013-04-15 07:01:00,64.9,59.7,29.24,NE,45,2.0,2.0,83,0.00,,,0.00,meteohub,2013-04-15 17:01:00,
2013-04-15 07:06:00,65.5,59.9,29.24,NE,45,2.0,3.0,82,0.00,,,0.00,meteohub,2013-04-15 17:06:00,
2013-04-15 07:11:00,67.1,61.2,29.24,NE,45,2.0,3.0,81,0.00,,,0.00,meteohub,2013-04-15 17:11:00,
2013-04-15 07:17:00,68.9,62.1,29.25,NE,45,2.0,3.0,79,0.00,,,0.00,meteohub,2013-04-15 17:17:00,
2013-04-15 07:21:00,70.7,62.8,29.24,NE,45,2.0,2.0,76,0.00,,,0.00,meteohub,2013-04-15 17:21:00,
2013-04-15 07:22:00,71.1,62.8,29.25,NE,45,2.0,2.0,75,0.00,,,0.00,meteohub,2013-04-15 17:22:00,
2013-04-15 07:25:00,72.0,62.8,29.24,NE,45,2.0,2.0,73,0.00,,,0.00,meteohub,2013-04-15 17:25:00,
2013-04-15 07:30:00,73.2,63.7,29.24,NE,45,2.0,2.0,72,0.00,,,0.00,meteohub,2013-04-15 17:30:00,
2013-04-15 07:35:00,74.8,64.8,29.25,NE,45,1.0,2.0,71,0.00,,,0.00,meteohub,2013-04-15 17:35:00,
2013-04-15 07:40:00,76.3,66.2,29.25,NE,45,0.0,2.0,71,0.00,,,0.00,meteohub,2013-04-15 17:40:00,
2013-04-15 07:45:00,77.9,68.2,29.25,NE,45,0.0,2.0,72,0.00,,,0.00,meteohub,2013-04-15 17:45:00,
2013-04-15 07:50:00,78.4,67.5,29.26,West,270,1.0,2.0,69,0.00,,,0.00,meteohub,2013-04-15 17:50:00,
2013-04-15 07:55:00,78.3,65.5,29.25,NW,315,0.0,2.0,65,0.00,,,0.00,meteohub,2013-04-15 17:55:00,
2013-04-15 08:00:00,77.7,65.8,29.25,West,270,2.0,2.0,67,0.00,,,0.00,meteohub,2013-04-15 18:00:00,
2013-04-15 08:05:00,77.4,66.0,29.25,NW,315,2.0,2.0,68,0.00,,,0.00,meteohub,2013-04-15 18:05:00,
2013-04-15 08:10:00,77.4,66.4,29.26,NW,315,2.0,2.0,69,0.00,,,0.00,meteohub,2013-04-15 18:10:00,
2013-04-15 08:15:00,77.2,65.8,29.25,West,270,4.0,4.0,68,0.00,,,0.00,meteohub,2013-04-15 18:15:00,
2013-04-15 08:20:00,76.6,66.2,29.26,West,270,4.0,4.0,70,0.00,,,0.00,meteohub,2013-04-15 18:20:00,
2013-04-15 08:25:00,76.8,66.2,29.26,West,270,3.0,4.0,70,0.00,,,0.00,meteohub,2013-04-15 18:25:00,
2013-04-15 08:29:00,76.8,65.8,29.25,North,0,5.0,5.0,69,0.00,,,0.00,meteohub,2013-04-15 18:29:00,
2013-04-15 08:34:00,77.2,65.8,29.26,NW,315,2.0,4.0,68,0.00,,,0.00,meteohub,2013-04-15 18:34:00,
2013-04-15 08:39:00,77.5,65.7,29.26,West,270,3.0,5.0,67,0.00,,,0.00,meteohub,2013-04-15 18:39:00,
2013-04-15 08:44:00,77.9,66.9,29.26,West,270,4.0,5.0,69,0.00,,,0.00,meteohub,2013-04-15 18:44:00,
2013-04-15 08:49:00,77.2,65.3,29.26,West,270,2.0,4.0,67,0.00,,,0.00,meteohub,2013-04-15 18:49:00,
2013-04-15 08:54:00,76.6,66.2,29.26,South,180,3.0,4.0,70,0.00,,,0.00,meteohub,2013-04-15 18:54:00,
2013-04-15 08:59:00,77.4,66.4,29.27,SE,135,2.0,4.0,69,0.00,,,0.00,meteohub,2013-04-15 18:59:00,
2013-04-15 09:04:00,78.6,66.7,29.26,South,180,4.0,4.0,67,0.00,,,0.00,meteohub,2013-04-15 19:04:00,
2013-04-15 09:09:00,78.4,66.6,29.27,East,90,2.0,4.0,67,0.00,,,0.00,meteohub,2013-04-15 19:09:00,
2013-04-15 09:14:00,77.9,66.0,29.26,SE,135,4.0,4.0,67,0.00,,,0.00,meteohub,2013-04-15 19:14:00,
2013-04-15 09:19:00,77.5,65.3,29.27,West,270,4.0,8.0,66,0.00,,,0.00,meteohub,2013-04-15 19:19:00,
2013-04-15 09:24:00,77.7,65.8,29.27,East,90,4.0,8.0,67,0.00,,,0.00,meteohub,2013-04-15 19:24:00,
2013-04-15 09:29:00,77.5,66.6,29.27,South,180,3.0,8.0,69,0.00,,,0.00,meteohub,2013-04-15 19:29:00,
2013-04-15 09:34:00,77.2,65.8,29.26,SE,135,3.0,4.0,68,0.00,,,0.00,meteohub,2013-04-15 19:34:00,
2013-04-15 09:39:00,77.9,66.9,29.27,West,270,2.0,4.0,69,0.00,,,0.00,meteohub,2013-04-15 19:39:00,
2013-04-15 09:45:00,77.0,65.7,29.26,East,90,2.0,4.0,68,0.00,,,0.00,meteohub,2013-04-15 19:45:00,
2013-04-15 09:50:00,76.5,65.5,29.26,West,270,3.0,5.0,69,0.00,,,0.00,meteohub,2013-04-15 19:50:00,
2013-04-15 09:56:00,75.9,65.5,29.26,East,90,4.0,5.0,70,0.00,,,0.00,meteohub,2013-04-15 19:56:00,
2013-04-15 09:57:00,76.1,66.0,29.26,SE,135,4.0,5.0,71,0.00,,,0.00,meteohub,2013-04-15 19:57:00,
2013-04-15 10:01:00,77.9,66.9,29.26,South,180,3.0,4.0,69,0.00,,,0.00,meteohub,2013-04-15 20:01:00,
2013-04-15 10:02:00,77.9,66.9,29.26,South,180,3.0,4.0,69,0.00,,,0.00,meteohub,2013-04-15 20:02:00,
2013-04-15 10:03:00,78.3,66.7,29.26,SE,135,3.0,4.0,68,0.00,,,0.00,meteohub,2013-04-15 20:03:00,
2013-04-15 10:08:00,78.4,66.6,29.26,North,0,4.0,4.0,67,0.00,,,0.00,meteohub,2013-04-15 20:08:00,
2013-04-15 10:13:00,78.8,66.6,29.25,NW,315,4.0,4.0,66,0.00,,,0.00,meteohub,2013-04-15 20:13:00,
2013-04-15 10:18:00,78.3,66.0,29.25,West,270,2.0,5.0,66,0.00,,,0.00,meteohub,2013-04-15 20:18:00,
2013-04-15 10:23:00,77.5,65.7,29.25,NW,315,5.0,5.0,67,0.00,,,0.00,meteohub,2013-04-15 20:23:00,
2013-04-15 10:28:00,78.6,67.1,29.25,West,270,5.0,8.0,68,0.00,,,0.00,meteohub,2013-04-15 20:28:00,
2013-04-15 10:33:00,78.4,66.2,29.25,West,270,2.0,8.0,66,0.00,,,0.00,meteohub,2013-04-15 20:33:00,
2013-04-15 10:38:00,78.1,66.2,29.25,West,270,8.0,8.0,67,0.00,,,0.00,meteohub,2013-04-15 20:38:00,
2013-04-15 10:43:00,78.1,66.7,29.25,West,270,5.0,8.0,68,0.00,,,0.00,meteohub,2013-04-15 20:43:00,
2013-04-15 10:48:00,78.6,67.1,29.25,NW,315,4.0,8.0,68,0.00,,,0.00,meteohub,2013-04-15 20:48:00,
2013-04-15 10:53:00,78.8,67.3,29.25,West,270,2.0,8.0,68,0.00,,,0.00,meteohub,2013-04-15 20:53:00,
2013-04-15 10:58:00,78.4,66.6,29.24,NW,315,2.0,7.0,67,0.00,,,0.00,meteohub,2013-04-15 20:58:00,
2013-04-15 11:03:00,79.2,67.3,29.24,West,270,4.0,7.0,67,0.00,,,0.00,meteohub,2013-04-15 21:03:00,
2013-04-15 11:08:00,78.6,66.7,29.24,SW,225,3.0,5.0,67,0.00,,,0.00,meteohub,2013-04-15 21:08:00,
2013-04-15 11:13:00,79.0,67.5,29.23,West,270,3.0,8.0,68,0.00,,,0.00,meteohub,2013-04-15 21:13:00,
2013-04-15 11:18:00,78.1,66.2,29.23,West,270,5.0,8.0,67,0.00,,,0.00,meteohub,2013-04-15 21:18:00,
2013-04-15 11:23:00,78.8,68.2,29.23,SE,135,5.0,6.0,70,0.00,,,0.00,meteohub,2013-04-15 21:23:00,
2013-04-15 11:28:00,78.8,67.8,29.23,West,270,2.0,6.0,69,0.00,,,0.00,meteohub,2013-04-15 21:28:00,
2013-04-15 11:33:00,78.6,68.9,29.23,South,180,4.0,6.0,72,0.00,,,0.00,meteohub,2013-04-15 21:33:00,
2013-04-15 11:38:00,78.4,67.8,29.23,West,270,3.0,6.0,70,0.00,,,0.00,meteohub,2013-04-15 21:38:00,
2013-04-15 11:43:00,78.6,68.9,29.23,SE,135,3.0,4.0,72,0.00,,,0.00,meteohub,2013-04-15 21:43:00,
2013-04-15 11:48:00,77.9,66.9,29.23,SW,225,3.0,8.0,69,0.00,,,0.00,meteohub,2013-04-15 21:48:00,
2013-04-15 11:53:00,77.5,66.9,29.23,South,180,2.0,8.0,70,0.00,,,0.00,meteohub,2013-04-15 21:53:00,
2013-04-15 11:58:00,78.3,67.3,29.23,West,270,3.0,8.0,69,0.00,,,0.00,meteohub,2013-04-15 21:58:00,
2013-04-15 12:03:00,78.8,66.9,29.23,West,270,4.0,7.0,67,0.00,,,0.00,meteohub,2013-04-15 22:03:00,
2013-04-15 12:08:00,78.8,67.3,29.23,West,270,5.0,7.0,68,0.00,,,0.00,meteohub,2013-04-15 22:08:00,
2013-04-15 12:13:00,78.8,67.8,29.23,NW,315,7.0,9.0,69,0.00,,,0.00,meteohub,2013-04-15 22:13:00,
2013-04-15 12:18:00,80.1,67.6,29.22,SW,225,2.0,9.0,66,0.00,,,0.00,meteohub,2013-04-15 22:18:00,
2013-04-15 12:23:00,80.2,66.9,29.23,West,270,9.0,9.0,64,0.00,,,0.00,meteohub,2013-04-15 22:23:00,
2013-04-15 12:28:00,80.2,68.4,29.23,SE,135,3.0,9.0,67,0.00,,,0.00,meteohub,2013-04-15 22:28:00,
2013-04-15 12:33:00,80.6,67.8,29.22,SW,225,6.0,9.0,65,0.00,,,0.00,meteohub,2013-04-15 22:33:00,
2013-04-15 12:38:00,79.2,67.3,29.22,West,270,6.0,9.0,67,0.00,,,0.00,meteohub,2013-04-15 22:38:00,
2013-04-15 12:43:00,79.2,68.2,29.22,West,270,4.0,7.0,69,0.00,,,0.00,meteohub,2013-04-15 22:43:00,
2013-04-15 12:48:00,80.6,68.5,29.21,West,270,6.0,8.0,67,0.00,,,0.00,meteohub,2013-04-15 22:48:00,
2013-04-15 12:53:00,79.9,67.1,29.21,West,270,8.0,10.0,65,0.00,,,0.00,meteohub,2013-04-15 22:53:00,
2013-04-15 12:58:00,79.9,68.0,29.21,NW,315,10.0,10.0,67,0.00,,,0.00,meteohub,2013-04-15 22:58:00,
2013-04-15 13:03:00,80.6,67.3,29.21,West,270,8.0,10.0,64,0.00,,,0.00,meteohub,2013-04-15 23:03:00,
2013-04-15 13:08:00,81.5,67.6,29.21,West,270,4.0,10.0,63,0.00,,,0.00,meteohub,2013-04-15 23:08:00,
2013-04-15 13:13:00,80.2,67.8,29.21,West,270,6.0,10.0,66,0.00,,,0.00,meteohub,2013-04-15 23:13:00,
2013-04-15 13:18:00,79.3,67.8,29.20,NW,315,2.0,8.0,68,0.00,,,0.00,meteohub,2013-04-15 23:18:00,
2013-04-15 13:23:00,78.1,67.5,29.20,West,270,4.0,8.0,70,0.00,,,0.00,meteohub,2013-04-15 23:23:00,
2013-04-15 13:28:00,79.0,69.3,29.20,NW,315,3.0,8.0,72,0.00,,,0.00,meteohub,2013-04-15 23:28:00,
2013-04-15 13:33:00,79.2,69.3,29.20,East,90,4.0,7.0,72,0.00,,,0.00,meteohub,2013-04-15 23:33:00,
2013-04-15 13:38:00,79.0,69.3,29.20,SE,135,4.0,7.0,72,0.00,,,0.00,meteohub,2013-04-15 23:38:00,
2013-04-15 13:43:00,78.1,68.7,29.19,SW,225,4.0,7.0,73,0.00,,,0.00,meteohub,2013-04-15 23:43:00,
2013-04-15 13:48:00,77.4,68.4,29.19,SE,135,4.0,7.0,74,0.00,,,0.00,meteohub,2013-04-15 23:48:00,
2013-04-15 13:53:00,76.8,68.4,29.20,West,270,2.0,6.0,75,0.00,,,0.00,meteohub,2013-04-15 23:53:00,
2013-04-15 13:58:00,76.8,68.7,29.20,West,270,5.0,5.0,76,0.00,,,0.00,meteohub,2013-04-15 23:58:00,
2013-04-15 14:03:00,76.3,68.2,29.20,South,180,2.0,5.0,76,0.00,,,0.00,meteohub,2013-04-16 00:03:00,
2013-04-15 14:08:00,76.5,68.4,29.20,NW,315,3.0,5.0,76,0.00,,,0.00,meteohub,2013-04-16 00:08:00,
2013-04-15 14:13:00,76.5,68.0,29.20,SW,225,4.0,5.0,75,0.00,,,0.00,meteohub,2013-04-16 00:13:00,
2013-04-15 14:18:00,76.6,67.6,29.20,West,270,4.0,4.0,74,0.00,,,0.00,meteohub,2013-04-16 00:18:00,
2013-04-15 14:23:00,76.3,67.8,29.20,West,270,4.0,4.0,75,0.00,,,0.00,meteohub,2013-04-16 00:23:00,
2013-04-15 14:28:00,76.8,68.4,29.20,West,270,3.0,8.0,75,0.00,,,0.00,meteohub,2013-04-16 00:28:00,
2013-04-15 14:34:00,76.8,68.4,29.20,North,0,2.0,8.0,75,0.00,,,0.00,meteohub,2013-04-16 00:34:00,
2013-04-15 14:39:00,77.2,68.7,29.20,NE,45,4.0,8.0,75,0.00,,,0.00,meteohub,2013-04-16 00:39:00,
2013-04-15 14:44:00,77.2,68.2,29.20,West,270,4.0,5.0,74,0.00,,,0.00,meteohub,2013-04-16 00:44:00,
2013-04-15 14:49:00,77.5,67.8,29.20,NW,315,5.0,5.0,72,0.00,,,0.00,meteohub,2013-04-16 00:49:00,
2013-04-15 14:54:00,79.9,69.3,29.21,SW,225,2.0,7.0,70,0.00,,,0.00,meteohub,2013-04-16 00:54:00,
2013-04-15 14:59:00,81.9,69.8,29.20,NW,315,3.0,7.0,67,0.00,,,0.00,meteohub,2013-04-16 00:59:00,
2013-04-15 15:04:00,81.3,68.4,29.21,West,270,2.0,7.0,65,0.00,,,0.00,meteohub,2013-04-16 01:04:00,
2013-04-15 15:09:00,80.6,69.1,29.20,WNW,293,3.0,7.0,68,0.00,,,0.00,meteohub,2013-04-16 01:09:00,
2013-04-15 15:14:00,78.8,68.5,29.20,South,180,3.0,7.0,71,0.00,,,0.00,meteohub,2013-04-16 01:14:00,
2013-04-15 15:19:00,79.0,68.0,29.20,West,270,6.0,7.0,69,0.00,,,0.00,meteohub,2013-04-16 01:19:00,
2013-04-15 15:24:00,78.1,67.8,29.20,SW,225,3.0,7.0,71,0.00,,,0.00,meteohub,2013-04-16 01:24:00,
2013-04-15 15:29:00,77.7,68.0,29.20,West,270,4.0,7.0,72,0.00,,,0.00,meteohub,2013-04-16 01:29:00,
2013-04-15 15:34:00,77.5,67.8,29.20,SE,135,6.0,6.0,72,0.00,,,0.00,meteohub,2013-04-16 01:34:00,
2013-04-15 15:39:00,77.0,68.0,29.21,SW,225,2.0,6.0,74,0.00,,,0.00,meteohub,2013-04-16 01:39:00,
2013-04-15 15:44:00,77.0,68.0,29.19,East,90,2.0,6.0,74,0.00,,,0.00,meteohub,2013-04-16 01:44:00,
2013-04-15 15:49:00,76.3,67.8,29.20,West,270,1.0,6.0,75,0.00,,,0.00,meteohub,2013-04-16 01:49:00,
2013-04-15 15:54:00,76.3,68.2,29.20,SW,225,2.0,4.0,76,0.00,,,0.00,meteohub,2013-04-16 01:54:00,
2013-04-15 15:59:00,76.6,67.6,29.20,West,270,4.0,4.0,74,0.00,,,0.00,meteohub,2013-04-16 01:59:00,
2013-04-15 16:04:00,76.1,68.0,29.19,South,180,2.0,5.0,76,0.00,,,0.00,meteohub,2013-04-16 02:04:00,
2013-04-15 16:09:00,77.9,68.5,29.20,NW,315,5.0,7.0,73,0.00,,,0.00,meteohub,2013-04-16 02:09:00,
2013-04-15 16:14:00,76.6,67.6,29.20,NE,45,2.0,7.0,74,0.00,,,0.00,meteohub,2013-04-16 02:14:00,
2013-04-15 16:19:00,76.6,67.6,29.20,NW,315,4.0,7.0,74,0.00,,,0.00,meteohub,2013-04-16 02:19:00,
2013-04-15 16:24:00,77.0,68.0,29.20,NE,45,5.0,5.0,74,0.00,,,0.00,meteohub,2013-04-16 02:24:00,
2013-04-15 16:29:00,78.6,68.9,29.21,South,180,4.0,5.0,72,0.00,,,0.00,meteohub,2013-04-16 02:29:00,
2013-04-15 16:34:00,79.3,69.1,29.20,SW,225,3.0,5.0,71,0.00,,,0.00,meteohub,2013-04-16 02:34:00,
2013-04-15 16:39:00,79.7,69.4,29.21,West,270,4.0,5.0,71,0.00,,,0.00,meteohub,2013-04-16 02:39:00,
2013-04-15 16:44:00,79.7,69.1,29.20,NW,315,2.0,5.0,70,0.00,,,0.00,meteohub,2013-04-16 02:44:00,
2013-04-15 16:49:00,80.2,69.1,29.20,SE,135,2.0,5.0,69,0.00,,,0.00,meteohub,2013-04-16 02:49:00,
2013-04-15 16:54:00,79.7,68.5,29.20,West,270,2.0,5.0,69,0.00,,,0.00,meteohub,2013-04-16 02:54:00,
2013-04-15 16:59:00,79.9,69.3,29.19,SE,135,2.0,5.0,70,0.00,,,0.00,meteohub,2013-04-16 02:59:00,
2013-04-15 17:04:00,78.3,68.5,29.20,SE,135,4.0,4.0,72,0.00,,,0.00,meteohub,2013-04-16 03:04:00,
2013-04-15 17:09:00,76.8,68.7,29.20,SW,225,2.0,5.0,76,0.00,,,0.00,meteohub,2013-04-16 03:09:00,
2013-04-15 17:14:00,76.3,68.2,29.20,SW,225,2.0,6.0,76,0.00,,,0.00,meteohub,2013-04-16 03:14:00,
2013-04-15 17:19:00,75.4,67.6,29.21,West,270,3.0,6.0,77,0.00,,,0.00,meteohub,2013-04-16 03:19:00,
2013-04-15 17:24:00,74.7,67.6,29.20,South,180,2.0,4.0,79,0.00,,,0.00,meteohub,2013-04-16 03:24:00,
2013-04-15 17:29:00,73.8,67.6,29.20,NW,315,4.0,4.0,81,0.00,,,0.00,meteohub,2013-04-16 03:29:00,
2013-04-15 17:34:00,73.0,67.3,29.20,West,270,2.0,4.0,82,0.00,,,0.00,meteohub,2013-04-16 03:34:00,
2013-04-15 17:39:00,72.7,67.6,29.21,West,270,4.0,4.0,84,0.00,,,0.00,meteohub,2013-04-16 03:39:00,
2013-04-15 17:44:00,72.3,67.6,29.21,SW,225,2.0,4.0,85,0.00,,,0.00,meteohub,2013-04-16 03:44:00,
2013-04-15 17:49:00,72.1,67.6,29.21,West,270,2.0,4.0,86,0.00,,,0.00,meteohub,2013-04-16 03:49:00,
2013-04-15 17:54:00,72.0,67.8,29.21,West,270,4.0,4.0,87,0.00,,,0.00,meteohub,2013-04-16 03:54:00,
2013-04-15 17:59:00,71.8,68.0,29.21,West,270,4.0,5.0,88,0.00,,,0.00,meteohub,2013-04-16 03:59:00,
2013-04-15 18:00:00,71.6,67.8,29.21,West,270,3.0,5.0,88,0.00,,,0.00,meteohub,2013-04-16 04:00:00,
2013-04-15 18:02:00,71.6,67.8,29.21,West,270,2.0,5.0,88,0.00,,,0.00,meteohub,2013-04-16 04:02:00,
2013-04-15 18:07:00,71.4,68.0,29.22,NW,315,1.0,5.0,89,0.00,,,0.00,meteohub,2013-04-16 04:07:00,
2013-04-15 18:12:00,71.2,67.8,29.22,West,270,2.0,4.0,89,0.00,,,0.00,meteohub,2013-04-16 04:12:00,
2013-04-15 18:17:00,71.1,68.0,29.22,West,270,2.0,2.0,90,0.00,,,0.00,meteohub,2013-04-16 04:17:00,
2013-04-15 18:22:00,70.9,68.2,29.23,West,270,2.0,2.0,91,0.00,,,0.00,meteohub,2013-04-16 04:22:00,
2013-04-15 18:27:00,70.9,68.2,29.23,West,270,1.0,3.0,91,0.00,,,0.00,meteohub,2013-04-16 04:27:00,
2013-04-15 18:32:00,70.5,68.0,29.23,West,270,4.0,4.0,92,0.00,,,0.00,meteohub,2013-04-16 04:32:00,
2013-04-15 18:37:00,70.2,67.6,29.23,West,270,2.0,4.0,92,0.00,,,0.00,meteohub,2013-04-16 04:37:00,
2013-04-15 18:42:00,70.2,67.6,29.24,West,270,2.0,4.0,92,0.00,,,0.00,meteohub,2013-04-16 04:42:00,
2013-04-15 18:47:00,70.2,67.6,29.24,NW,315,2.0,4.0,92,0.00,,,0.00,meteohub,2013-04-16 04:47:00,
2013-04-15 18:52:00,70.0,67.5,29.24,West,270,2.0,3.0,92,0.00,,,0.00,meteohub,2013-04-16 04:52:00,
2013-04-15 18:57:00,70.0,67.5,29.25,NW,315,2.0,3.0,92,0.00,,,0.00,meteohub,2013-04-16 04:57:00,
2013-04-15 19:02:00,70.0,67.5,29.24,North,0,2.0,3.0,92,0.00,,,0.00,meteohub,2013-04-16 05:02:00,
2013-04-15 19:07:00,69.8,67.3,29.25,NE,45,2.0,2.0,92,0.00,,,0.00,meteohub,2013-04-16 05:07:00,
2013-04-15 19:12:00,69.8,67.6,29.24,NW,315,1.0,2.0,93,0.00,,,0.00,meteohub,2013-04-16 05:12:00,
2013-04-15 19:17:00,69.6,67.5,29.25,NE,45,1.0,2.0,93,0.00,,,0.00,meteohub,2013-04-16 05:17:00,
2013-04-15 19:22:00,69.4,67.6,29.25,NE,45,2.0,2.0,94,0.00,,,0.00,meteohub,2013-04-16 05:22:00,
2013-04-15 19:27:00,69.3,67.8,29.25,NE,45,1.0,2.0,95,0.00,,,0.00,meteohub,2013-04-16 05:27:00,
2013-04-15 19:32:00,69.1,67.8,29.25,NE,45,2.0,2.0,96,0.00,,,0.00,meteohub,2013-04-16 05:32:00,
2013-04-15 19:37:00,69.1,68.2,29.25,NE,45,1.0,2.0,97,0.00,,,0.00,meteohub,2013-04-16 05:37:00,
2013-04-15 19:42:00,69.1,68.2,29.25,NE,45,2.0,2.0,97,0.00,,,0.00,meteohub,2013-04-16 05:42:00,
2013-04-15 19:47:00,69.1,68.5,29.25,NE,45,2.0,2.0,98,0.00,,,0.00,meteohub,2013-04-16 05:47:00,
2013-04-15 19:52:00,69.1,68.5,29.26,NE,45,1.0,2.0,98,0.00,,,0.00,meteohub,2013-04-16 05:52:00,
2013-04-15 19:57:00,69.1,68.7,29.26,NE,45,2.0,2.0,99,0.00,,,0.00,meteohub,2013-04-16 05:57:00,
2013-04-15 20:01:00,69.1,68.7,29.25,NE,45,2.0,2.0,99,0.00,,,0.00,meteohub,2013-04-16 06:01:00,
2013-04-15 20:06:00,69.1,68.7,29.26,North,0,1.0,2.0,99,0.00,,,0.00,meteohub,2013-04-16 06:06:00,
2013-04-15 20:12:00,69.1,68.7,29.26,North,0,1.0,2.0,99,0.00,,,0.00,meteohub,2013-04-16 06:12:00,
2013-04-15 20:17:00,69.1,68.7,29.26,North,0,1.0,2.0,99,0.00,,,0.00,meteohub,2013-04-16 06:17:00,
2013-04-15 20:22:00,69.1,68.7,29.26,West,270,2.0,2.0,99,0.00,,,0.00,meteohub,2013-04-16 06:22:00,
2013-04-15 20:27:00,69.1,68.7,29.26,NW,315,0.0,2.0,99,0.00,,,0.00,meteohub,2013-04-16 06:27:00,
2013-04-15 20:32:00,69.1,68.7,29.26,NW,315,0.0,2.0,99,0.00,,,0.00,meteohub,2013-04-16 06:32:00,
2013-04-15 20:37:00,69.1,68.7,29.26,SW,225,1.0,2.0,99,0.00,,,0.00,meteohub,2013-04-16 06:37:00,
2013-04-15 20:42:00,69.1,68.7,29.26,SW,225,0.0,2.0,99,0.00,,,0.00,meteohub,2013-04-16 06:42:00,
2013-04-15 20:47:00,69.1,68.7,29.26,SW,225,0.0,2.0,99,0.00,,,0.00,meteohub,2013-04-16 06:47:00,
2013-04-15 20:52:00,69.1,68.7,29.26,SW,225,0.0,1.0,99,0.00,,,0.00,meteohub,2013-04-16 06:52:00,
2013-04-15 20:57:00,69.1,68.7,29.26,North,0,1.0,1.0,99,0.00,,,0.00,meteohub,2013-04-16 06:57:00,
2013-04-15 21:02:00,69.1,68.7,29.27,SW,225,1.0,2.0,99,0.00,,,0.00,meteohub,2013-04-16 07:02:00,
2013-04-15 21:07:00,69.1,68.7,29.27,SW,225,0.0,2.0,99,0.00,,,0.00,meteohub,2013-04-16 07:07:00,
2013-04-15 21:12:00,69.3,68.9,29.27,West,270,2.0,2.0,99,0.00,,,0.00,meteohub,2013-04-16 07:12:00,
2013-04-15 21:17:00,69.3,68.9,29.27,NW,315,2.0,4.0,99,0.00,,,0.00,meteohub,2013-04-16 07:17:00,
2013-04-15 21:22:00,69.4,69.1,29.28,NW,315,2.0,4.0,99,0.00,,,0.00,meteohub,2013-04-16 07:22:00,
2013-04-15 21:27:00,69.4,69.1,29.28,NW,315,2.0,4.0,99,0.00,,,0.00,meteohub,2013-04-16 07:27:00,
2013-04-15 21:32:00,69.4,69.1,29.28,NW,315,1.0,2.0,99,0.00,,,0.00,meteohub,2013-04-16 07:32:00,
2013-04-15 21:37:00,69.3,68.9,29.29,NW,315,2.0,2.0,99,0.00,,,0.00,meteohub,2013-04-16 07:37:00,
2013-04-15 21:42:00,69.4,69.1,29.28,NW,315,2.0,2.0,99,0.00,,,0.00,meteohub,2013-04-16 07:42:00,
2013-04-15 21:47:00,69.4,69.1,29.29,NE,45,2.0,2.0,99,0.00,,,0.00,meteohub,2013-04-16 07:47:00,
2013-04-15 21:52:00,69.4,69.1,29.29,North,0,1.0,2.0,99,0.00,,,0.00,meteohub,2013-04-16 07:52:00,
2013-04-15 21:57:00,69.4,69.1,29.29,NW,315,2.0,2.0,99,0.00,,,0.00,meteohub,2013-04-16 07:57:00,
2013-04-15 22:02:00,69.3,68.9,29.29,NW,315,1.0,4.0,99,0.00,,,0.00,meteohub,2013-04-16 08:02:00,
2013-04-15 22:07:00,69.3,68.9,29.29,NW,315,1.0,4.0,99,0.00,,,0.00,meteohub,2013-04-16 08:07:00,
2013-04-15 22:12:00,69.3,68.9,29.29,NW,315,0.0,2.0,99,0.00,,,0.00,meteohub,2013-04-16 08:12:00,
2013-04-15 22:17:00,69.3,68.9,29.29,NW,315,0.0,1.0,99,0.00,,,0.00,meteohub,2013-04-16 08:17:00,
2013-04-15 22:22:00,69.3,68.9,29.29,NW,315,0.0,1.0,99,0.00,,,0.00,meteohub,2013-04-16 08:22:00,
2013-04-15 22:27:00,69.3,68.9,29.29,NW,315,0.0,1.0,99,0.00,,,0.00,meteohub,2013-04-16 08:27:00,
2013-04-15 22:32:00,69.3,68.9,29.29,NW,315,1.0,1.0,99,0.00,,,0.00,meteohub,2013-04-16 08:32:00,
2013-04-15 22:37:00,69.1,68.7,29.29,NW,315,0.0,1.0,99,0.00,,,0.00,meteohub,2013-04-16 08:37:00,
2013-04-15 22:42:00,69.1,68.7,29.29,NW,315,0.0,1.0,99,0.00,,,0.00,meteohub,2013-04-16 08:42:00,
2013-04-15 22:47:00,69.1,68.7,29.28,NW,315,0.0,1.0,99,0.00,,,0.00,meteohub,2013-04-16 08:47:00,
2013-04-15 22:52:00,68.9,68.5,29.28,NW,315,0.0,0.0,99,0.00,,,0.00,meteohub,2013-04-16 08:52:00,
2013-04-15 22:57:00,68.7,68.4,29.28,NW,315,0.0,0.0,99,0.00,,,0.00,meteohub,2013-04-16 08:57:00,
2013-04-15 23:02:00,68.7,68.4,29.28,North,0,0.0,1.0,99,0.00,,,0.00,meteohub,2013-04-16 09:02:00,
2013-04-15 23:07:00,68.5,68.2,29.28,North,0,0.0,1.0,99,0.00,,,0.00,meteohub,2013-04-16 09:07:00,
2013-04-15 23:12:00,68.4,68.0,29.28,North,0,0.0,1.0,99,0.00,,,0.00,meteohub,2013-04-16 09:12:00,
2013-04-15 23:17:00,68.4,68.0,29.27,North,0,0.0,0.0,99,0.00,,,0.00,meteohub,2013-04-16 09:17:00,
2013-04-15 23:22:00,68.2,67.8,29.27,North,0,0.0,0.0,99,0.00,,,0.00,meteohub,2013-04-16 09:22:00,
2013-04-15 23:27:00,68.0,67.6,29.28,North,0,1.0,1.0,99,0.00,,,0.00,meteohub,2013-04-16 09:27:00,
2013-04-15 23:31:00,67.8,67.5,29.27,North,0,0.0,1.0,99,0.00,,,0.00,meteohub,2013-04-16 09:31:00,
2013-04-15 23:37:00,67.6,67.3,29.27,North,0,0.0,1.0,99,0.00,,,0.00,meteohub,2013-04-16 09:37:00,
2013-04-15 23:42:00,67.5,67.1,29.27,North,0,0.0,1.0,99,0.00,,,0.00,meteohub,2013-04-16 09:42:00,
2013-04-15 23:47:00,67.1,66.7,29.27,North,0,0.0,0.0,99,0.00,,,0.00,meteohub,2013-04-16 09:47:00,
2013-04-15 23:52:00,66.9,66.6,29.27,North,0,0.0,0.0,99,0.00,,,0.00,meteohub,2013-04-16 09:52:00,
2013-04-15 23:57:00,66.7,66.4,29.27,North,0,0.0,0.0,99,0.00,,,0.00,meteohub,2013-04-16 09:57:00,